Time;durP1;ratioP1;P1;durP2;ratioP2;P2;SDS_P1;SDS_P2;PMS_P1;PMS_P2;Temp;Humidity;BMP_temperature;BMP_pressure;BME280_temperature;BME280_humidity;BME280_pressure;Samples;Min_cycle;Max_cycle;Signal;HPM_P1;HPM_P2
2022/07/08 00:02:05;;;;;;;20.27;3.53;;;;;;;15.29;71.10;102879.88;5072134;28;20226;-81
2022/07/08 00:04:30;;;;;;;10.07;2.90;;;;;;;15.26;70.53;102874.63;5068721;28;20020;-81
2022/07/08 00:06:55;;;;;;;13.85;3.22;;;;;;;15.25;73.61;102875.59;5069569;28;20037;-81
2022/07/08 00:09:21;;;;;;;11.98;3.08;;;;;;;15.16;71.47;102874.31;5073040;28;20125;-81
2022/07/08 00:11:47;;;;;;;14.02;3.28;;;;;;;15.16;73.37;102881.56;5071741;28;20131;-81
2022/07/08 00:14:12;;;;;;;15.80;3.45;;;;;;;15.11;71.31;102878.25;5072912;28;20541;-81
2022/07/08 00:16:40;;;;;;;13.45;3.75;;;;;;;15.09;73.02;102878.34;5074626;28;20024;-81
2022/07/08 00:19:11;;;;;;;10.32;3.30;;;;;;;15.07;71.99;102879.44;5074781;28;20514;-81
2022/07/08 00:21:36;;;;;;;15.13;3.78;;;;;;;15.01;72.63;102877.97;5069256;28;20035;-81
2022/07/08 00:24:02;;;;;;;15.70;3.63;;;;;;;14.98;73.76;102876.31;5071100;28;20103;-81
2022/07/08 00:26:27;;;;;;;11.95;3.90;;;;;;;14.88;73.46;102877.81;5073110;28;20476;-81
2022/07/08 00:28:52;;;;;;;10.52;3.50;;;;;;;14.83;74.46;102869.97;5068442;28;20078;-81
2022/07/08 00:31:17;;;;;;;13.10;3.17;;;;;;;14.79;74.29;102870.25;5073837;28;20025;-81
2022/07/08 00:33:43;;;;;;;12.15;3.42;;;;;;;14.74;74.76;102869.63;5064950;28;20024;-81
2022/07/08 00:36:08;;;;;;;17.30;3.45;;;;;;;14.72;75.09;102879.69;5071482;28;20028;-81
2022/07/08 00:38:33;;;;;;;11.90;3.10;;;;;;;14.63;73.98;102873.84;5088520;28;20455;-81
2022/07/08 00:40:59;;;;;;;10.13;3.42;;;;;;;14.61;75.05;102875.78;5070276;28;20036;-81
2022/07/08 00:43:36;;;;;;;10.35;2.97;;;;;;;14.56;75.82;102871.56;5073830;28;20596;-81
2022/07/08 00:46:01;;;;;;;14.70;3.45;;;;;;;14.49;75.65;102884.56;5060742;28;20024;-81
2022/07/08 00:48:27;;;;;;;16.02;3.85;;;;;;;14.45;75.52;102885.69;5074379;28;20494;-81
2022/07/08 00:50:52;;;;;;;15.05;3.55;;;;;;;14.39;75.26;102886.91;5072699;28;20020;-81
2022/07/08 00:53:18;;;;;;;21.15;4.15;;;;;;;14.34;75.98;102881.75;5073560;28;20142;-81
2022/07/08 00:55:44;;;;;;;15.85;3.80;;;;;;;14.26;76.13;102884.03;5072807;28;20100;-81
2022/07/08 00:58:09;;;;;;;10.55;3.60;;;;;;;14.16;76.19;102888.22;5070527;28;20036;-81
2022/07/08 01:00:35;;;;;;;9.85;3.28;;;;;;;14.05;76.56;102885.25;5071990;28;21399;-81
2022/07/08 01:03:01;;;;;;;14.00;4.18;;;;;;;13.99;76.27;102890.00;5070658;28;20024;-81
2022/07/08 01:05:27;;;;;;;12.60;3.15;;;;;;;13.93;76.69;102894.91;5069336;28;20047;-81
2022/07/08 01:07:52;;;;;;;12.95;3.28;;;;;;;13.84;77.36;102896.28;5076427;28;20029;-81
2022/07/08 01:10:17;;;;;;;16.05;4.35;;;;;;;13.78;76.64;102891.22;5074982;28;20418;-81
2022/07/08 01:12:43;;;;;;;17.38;4.05;;;;;;;13.74;77.41;102885.09;5074526;28;20071;-81
2022/07/08 01:15:08;;;;;;;12.23;3.47;;;;;;;13.70;77.78;102894.31;5075410;28;20033;-81
2022/07/08 01:17:44;;;;;;;17.23;3.90;;;;;;;13.66;77.47;102883.75;5075966;28;20016;-81
2022/07/08 01:20:12;;;;;;;11.85;3.67;;;;;;;13.61;77.80;102881.31;5078029;28;20025;-81
2022/07/08 01:22:38;;;;;;;15.82;4.25;;;;;;;13.56;77.95;102884.25;5075519;28;20036;-81
2022/07/08 01:25:08;;;;;;;16.35;4.05;;;;;;;13.43;78.28;102885.88;5073880;28;20454;-81
2022/07/08 01:27:33;;;;;;;;;;;;;;;13.48;75.93;102883.78;5075855;28;20024;-81
2022/07/08 01:29:59;;;;;;;14.85;3.22;;;;;;;13.30;78.11;102885.59;5075196;28;19927;-81
2022/07/08 01:32:37;;;;;;;14.07;4.10;;;;;;;13.23;78.21;102885.03;5075777;28;20334;-81
2022/07/08 01:35:03;;;;;;;15.07;4.18;;;;;;;13.22;78.91;102886.00;5076062;28;20028;-81
2022/07/08 01:37:28;;;;;;;9.18;3.42;;;;;;;13.18;78.88;102887.13;5067905;28;20047;-81
2022/07/08 01:39:54;;;;;;;17.52;4.20;;;;;;;13.12;78.71;102892.84;5074009;28;20381;-81
2022/07/08 01:42:19;;;;;;;14.30;4.45;;;;;;;13.03;79.30;102883.38;5070408;28;20025;-81
2022/07/08 01:44:44;;;;;;;11.85;3.72;;;;;;;13.00;79.54;102882.66;5073769;28;20167;-81
2022/07/08 01:47:10;;;;;;;15.02;4.40;;;;;;;12.89;79.80;102881.38;5074974;28;20024;-81
2022/07/08 01:49:35;;;;;;;14.27;3.83;;;;;;;12.87;79.88;102875.19;5075940;28;20024;-81
2022/07/08 01:52:00;;;;;;;20.58;3.97;;;;;;;12.83;80.21;102876.28;5079675;28;20480;-81
2022/07/08 01:54:26;;;;;;;11.68;4.18;;;;;;;12.75;80.31;102873.09;5074717;28;20051;-81
2022/07/08 01:57:13;;;;;;;15.38;4.05;;;;;;;12.72;80.57;102867.84;5073410;28;20025;-81
2022/07/08 01:59:37;;;;;;;15.32;4.50;;;;;;;12.71;80.25;102867.00;5074849;28;20476;-81
2022/07/08 02:02:02;;;;;;;14.45;4.60;;;;;;;12.66;80.63;102869.03;5074046;28;20056;-81
2022/07/08 02:04:27;;;;;;;13.05;3.83;;;;;;;12.62;80.73;102871.97;5075485;28;20033;-81
2022/07/08 02:06:53;;;;;;;14.20;4.38;;;;;;;12.58;81.18;102869.41;5073485;28;20039;-81
2022/07/08 02:09:18;;;;;;;13.40;4.28;;;;;;;12.58;81.73;102873.94;5076218;28;20091;-81
2022/07/08 02:14:27;;;;;;;11.57;4.25;;;;;;;12.62;82.75;102885.44;5076114;28;20165;-81
2022/07/08 02:16:52;;;;;;;12.52;4.47;;;;;;;12.63;82.91;102884.50;5074647;28;20055;-81
2022/07/08 02:19:18;;;;;;;16.77;4.90;;;;;;;12.64;82.67;102879.03;5091082;28;20029;-81
2022/07/08 02:21:43;;;;;;;15.23;4.38;;;;;;;12.70;82.84;102883.25;5075291;28;20150;-81
2022/07/08 02:24:08;;;;;;;12.07;4.03;;;;;;;12.73;82.77;102883.97;5075014;28;20032;-81
2022/07/08 02:26:33;;;;;;;16.48;4.68;;;;;;;12.75;82.57;102879.38;5072769;28;20029;-81
2022/07/08 02:28:59;;;;;;;16.45;4.65;;;;;;;12.77;82.63;102884.69;5068597;28;20385;-81
2022/07/08 02:31:24;;;;;;;12.85;3.63;;;;;;;12.78;82.88;102883.72;5072560;28;20028;-81
2022/07/08 02:33:49;;;;;;;15.98;4.22;;;;;;;12.80;83.00;102886.34;5075865;28;20031;-81
2022/07/08 02:36:15;;;;;;;15.55;4.50;;;;;;;12.84;83.18;102886.16;5074268;28;20457;-81
2022/07/08 02:38:40;;;;;;;17.88;4.45;;;;;;;12.85;82.71;102882.47;5075869;28;20039;-81
2022/07/08 02:41:05;;;;;;;13.88;3.63;;;;;;;12.88;82.86;102885.00;5075902;28;20142;-81
2022/07/08 02:43:30;;;;;;;12.98;4.05;;;;;;;12.92;82.78;102885.75;5073291;28;20476;-81
2022/07/08 02:45:56;;;;;;;13.60;3.92;;;;;;;12.94;82.35;102886.53;5072517;28;20175;-81
2022/07/08 02:48:21;;;;;;;14.68;4.00;;;;;;;12.93;82.16;102887.50;5074833;28;20040;-81
2022/07/08 02:50:46;;;;;;;13.90;4.50;;;;;;;12.92;82.55;102885.75;5080076;28;20036;-81
2022/07/08 02:53:11;;;;;;;15.95;4.40;;;;;;;12.93;82.43;102882.09;5080589;28;20472;-81
2022/07/08 02:55:37;;;;;;;18.38;4.13;;;;;;;12.89;82.52;102875.97;5072296;28;20063;-81
2022/07/08 02:58:02;;;;;;;14.10;4.10;;;;;;;12.89;81.91;102877.81;5072561;28;20012;-81
2022/07/08 03:00:28;;;;;;;11.45;4.03;;;;;;;12.85;81.94;102878.91;5072302;28;20025;-81
2022/07/08 03:02:53;;;;;;;13.40;3.78;;;;;;;12.83;82.25;102888.91;5074267;28;20547;-81
2022/07/08 03:05:18;;;;;;;12.35;3.75;;;;;;;12.81;81.94;102883.59;5090263;28;20024;-81
2022/07/08 03:07:44;;;;;;;10.50;3.47;;;;;;;12.75;81.86;102890.19;5088156;28;20082;-81
2022/07/08 03:10:09;;;;;;;18.48;4.63;;;;;;;12.72;82.36;102889.44;5073316;28;20037;-81
2022/07/08 03:12:34;;;;;;;12.07;3.25;;;;;;;12.71;82.75;102893.09;5073673;28;20036;-81
2022/07/08 03:15:00;;;;;;;14.32;3.58;;;;;;;12.71;83.04;102898.50;5071822;28;20033;-81
2022/07/08 03:17:25;;;;;;;12.55;3.17;;;;;;;12.70;82.85;102899.44;5073597;28;20476;-81
2022/07/08 03:19:50;;;;;;;9.07;3.53;;;;;;;12.70;83.17;102900.31;5070538;28;20032;-81
2022/07/08 03:22:15;;;;;;;13.85;4.25;;;;;;;12.71;82.81;102887.72;5076494;28;20084;-82
2022/07/08 03:24:41;;;;;;;17.65;4.10;;;;;;;12.70;82.68;102886.81;5065379;28;20044;-82
2022/07/08 03:27:06;;;;;;;15.50;4.05;;;;;;;12.72;82.28;102887.63;5071559;28;20107;-82
2022/07/08 03:29:31;;;;;;;18.63;4.50;;;;;;;12.71;82.04;102887.72;5074473;28;20046;-82
2022/07/08 03:31:57;;;;;;;16.48;3.92;;;;;;;12.65;82.59;102890.69;5067734;28;20482;-82
2022/07/08 03:34:22;;;;;;;13.65;4.20;;;;;;;12.62;82.51;102893.53;5073216;28;20035;-82
2022/07/08 03:36:48;;;;;;;15.48;4.40;;;;;;;12.55;82.35;102891.16;5064476;28;20035;-82
2022/07/08 03:39:13;;;;;;;12.52;3.42;;;;;;;12.51;82.51;102897.63;5069356;28;20107;-82
2022/07/08 03:41:39;;;;;;;15.80;3.65;;;;;;;12.50;82.34;102898.59;5074417;28;20121;-81
2022/07/08 03:44:04;;;;;;;14.48;3.65;;;;;;;12.45;82.25;102903.34;5072905;28;20476;-81
2022/07/08 03:46:30;;;;;;;13.90;4.07;;;;;;;12.41;82.92;102901.72;5073894;28;20050;-81
2022/07/08 03:48:56;;;;;;;13.77;3.70;;;;;;;12.42;82.85;102898.09;5066220;28;20020;-81
2022/07/08 03:51:23;;;;;;;15.23;3.72;;;;;;;12.37;82.55;102892.94;5071433;28;20352;-81
2022/07/08 03:53:48;;;;;;;14.55;3.90;;;;;;;12.32;82.70;102896.78;5074480;28;20503;-81
2022/07/08 03:56:13;;;;;;;14.30;4.03;;;;;;;12.24;82.52;102898.03;5059479;28;20027;-81
2022/07/08 03:58:39;;;;;;;14.80;3.88;;;;;;;12.21;82.75;102903.56;5072476;28;20488;-81
2022/07/08 04:01:05;;;;;;;10.30;3.42;;;;;;;12.21;82.89;102900.88;5074210;28;20089;-81
2022/07/08 04:03:30;;;;;;;11.27;3.33;;;;;;;12.17;83.47;102888.47;5072405;28;20020;-81
2022/07/08 04:05:56;;;;;;;11.73;3.78;;;;;;;12.19;83.62;102897.34;5087280;28;20089;-81
2022/07/08 04:08:21;;;;;;;12.52;3.40;;;;;;;12.13;83.59;102897.66;5074172;28;20127;-81
2022/07/08 04:10:46;;;;;;;14.88;3.88;;;;;;;12.13;83.58;102897.66;5072690;28;20369;-81
2022/07/08 04:13:12;;;;;;;11.02;3.40;;;;;;;12.15;84.03;102895.78;5073857;28;20047;-81
2022/07/08 04:15:37;;;;;;;14.88;4.15;;;;;;;12.11;83.77;102896.88;5072941;28;20100;-81
2022/07/08 04:18:02;;;;;;;14.65;4.35;;;;;;;12.14;84.17;102899.41;5071839;28;20028;-81
2022/07/08 04:20:29;;;;;;;15.25;4.45;;;;;;;12.20;84.08;102898.25;5071242;28;20056;-81
2022/07/08 04:22:54;;;;;;;15.30;4.20;;;;;;;12.22;84.15;102894.50;5071900;28;20583;-81
2022/07/08 04:25:19;;;;;;;11.25;4.13;;;;;;;12.27;84.49;102893.44;5073969;28;20033;-81
2022/07/08 04:27:45;;;;;;;15.70;4.97;;;;;;;12.27;84.13;102897.03;5071671;28;20047;-81
2022/07/08 04:30:10;;;;;;;13.23;4.05;;;;;;;12.30;84.43;102894.19;5079155;28;20020;-81
2022/07/08 04:32:36;;;;;;;13.13;3.95;;;;;;;12.31;84.28;102895.03;5063748;28;20024;-81
2022/07/08 04:35:01;;;;;;;11.32;3.92;;;;;;;12.33;84.61;102903.91;5070203;28;20044;-81
2022/07/08 04:37:26;;;;;;;15.90;4.20;;;;;;;12.37;84.99;102910.91;5069687;28;20025;-81
2022/07/08 04:39:53;;;;;;;15.48;4.95;;;;;;;12.36;84.72;102918.13;5071637;28;20121;-81
2022/07/08 04:42:18;;;;;;;16.27;4.80;;;;;;;12.39;84.55;102919.81;5074842;28;20036;-81
2022/07/08 04:44:43;;;;;;;17.80;5.05;;;;;;;12.43;84.69;102924.13;5077449;28;20032;-81
2022/07/08 04:47:09;;;;;;;21.50;5.65;;;;;;;12.49;84.24;102925.63;5075589;28;20110;-81
2022/07/08 04:49:34;;;;;;;19.67;5.65;;;;;;;12.54;83.62;102929.00;5074868;28;20036;-81
2022/07/08 04:51:59;;;;;;;13.95;4.70;;;;;;;12.58;84.01;102931.47;5077125;28;20107;-81
2022/07/08 04:54:24;;;;;;;18.63;4.78;;;;;;;12.62;84.37;102931.31;5072734;28;20039;-81
2022/07/08 04:56:50;;;;;;;19.85;5.55;;;;;;;12.63;83.75;102933.94;5073564;28;20848;-81
2022/07/08 04:59:15;;;;;;;20.75;5.63;;;;;;;12.67;83.99;102935.53;5075697;28;20024;-81
2022/07/08 05:01:40;;;;;;;18.67;5.57;;;;;;;12.72;83.57;102938.00;5075462;28;20097;-81
2022/07/08 05:04:05;;;;;;;16.08;5.72;;;;;;;12.79;83.79;102944.84;5076740;28;20038;-81
2022/07/08 05:06:32;;;;;;;19.40;5.88;;;;;;;12.85;83.19;102938.28;5076054;28;20430;-81
2022/07/08 05:08:57;;;;;;;18.67;5.82;;;;;;;12.91;83.11;102938.88;5069708;28;20120;-81
2022/07/08 05:11:23;;;;;;;17.90;5.82;;;;;;;13.00;83.47;102942.03;5074298;28;20052;-81
2022/07/08 05:13:48;;;;;;;15.65;5.28;;;;;;;13.06;82.63;102942.63;5075410;28;20032;-81
2022/07/08 05:16:13;;;;;;;17.08;5.43;;;;;;;13.13;81.24;102940.47;5075755;28;20054;-81
2022/07/08 05:18:40;;;;;;;23.25;5.35;;;;;;;13.20;81.71;102944.59;5074986;28;20033;-81
2022/07/08 05:21:05;;;;;;;16.13;4.63;;;;;;;13.25;83.40;102945.25;5074917;28;20477;-81
2022/07/08 05:23:30;;;;;;;17.00;4.72;;;;;;;13.32;82.86;102953.91;5075473;28;20136;-81
2022/07/08 05:25:56;;;;;;;15.85;4.97;;;;;;;13.37;81.71;102951.00;5077731;28;20025;-81
2022/07/08 05:28:21;;;;;;;13.38;4.85;;;;;;;13.39;80.80;102958.06;5068860;28;20505;-81
2022/07/08 05:30:46;;;;;;;21.55;6.15;;;;;;;13.44;82.60;102958.72;5076306;28;20039;-81
2022/07/08 05:33:11;;;;;;;19.90;5.95;;;;;;;13.53;82.27;102961.88;5074434;28;20021;-81
2022/07/08 05:35:37;;;;;;;17.83;5.43;;;;;;;13.54;82.71;102964.50;5075855;28;20207;-81
2022/07/08 05:38:02;;;;;;;18.90;6.07;;;;;;;13.61;82.81;102960.53;5074640;28;20055;-81
2022/07/08 05:40:27;;;;;;;20.42;6.25;;;;;;;13.71;81.12;102962.75;5073866;28;20040;-81
2022/07/08 05:42:53;;;;;;;20.98;6.07;;;;;;;13.80;82.07;102964.97;5072867;28;20036;-81
2022/07/08 05:45:18;;;;;;;15.68;5.82;;;;;;;13.90;84.13;102963.50;5076879;28;20194;-81
2022/07/08 05:47:43;;;;;;;21.35;7.22;;;;;;;13.97;82.91;102967.63;5090924;28;20035;-81
2022/07/08 05:50:09;;;;;;;20.13;6.50;;;;;;;14.02;82.27;102974.63;5078972;28;20036;-81
2022/07/08 05:52:34;;;;;;;23.05;6.00;;;;;;;14.06;81.56;102973.50;5072423;28;20029;-81
2022/07/08 05:54:59;;;;;;;17.90;5.93;;;;;;;14.11;82.12;102977.69;5069674;28;20074;-81
2022/07/08 05:57:24;;;;;;;18.80;5.38;;;;;;;14.19;82.48;102977.28;5069992;28;20502;-81
2022/07/08 05:59:50;;;;;;;23.38;6.20;;;;;;;14.20;80.06;102979.00;5073364;28;20029;-81
2022/07/08 06:02:17;;;;;;;16.30;4.57;;;;;;;14.26;79.77;102989.53;5072895;28;20032;-81
2022/07/08 06:04:42;;;;;;;22.63;5.22;;;;;;;14.32;79.94;102988.31;5074015;28;20028;-81
2022/07/08 06:07:07;;;;;;;17.23;5.35;;;;;;;14.37;79.95;102986.22;5076726;28;20177;-81
2022/07/08 06:09:33;;;;;;;17.58;4.70;;;;;;;14.41;78.02;102987.81;5068432;28;20020;-81
2022/07/08 06:11:58;;;;;;;14.00;4.60;;;;;;;14.48;79.01;102988.31;5069198;28;20516;-81
2022/07/08 06:14:23;;;;;;;13.10;3.40;;;;;;;14.55;78.80;102983.44;5086367;28;20048;-81
2022/07/08 06:16:49;;;;;;;12.73;3.97;;;;;;;14.63;79.54;102989.34;5073303;28;20115;-81
2022/07/08 06:19:15;;;;;;;16.85;3.63;;;;;;;14.68;79.58;102980.00;5072764;28;20429;-81
2022/07/08 06:21:40;;;;;;;19.27;4.38;;;;;;;14.76;79.16;102986.78;5077294;28;20035;-81
2022/07/08 06:24:06;;;;;;;15.77;3.38;;;;;;;14.83;78.70;102985.47;5073509;28;20033;-81
2022/07/08 06:26:31;;;;;;;14.82;3.70;;;;;;;14.83;77.46;102983.66;5074486;28;20016;-81
2022/07/08 06:28:57;;;;;;;12.55;3.65;;;;;;;14.87;76.26;102988.91;5076215;28;20021;-81
2022/07/08 06:31:22;;;;;;;13.48;3.00;;;;;;;14.89;77.16;102987.88;5074756;28;20028;-81
2022/07/08 06:33:48;;;;;;;15.15;3.33;;;;;;;14.95;77.09;102984.78;5070180;28;20021;-80
2022/07/08 06:36:14;;;;;;;12.05;3.53;;;;;;;15.02;79.08;102986.19;5076501;28;20024;-80
2022/07/08 06:38:39;;;;;;;12.98;3.13;;;;;;;15.08;78.53;102984.06;5075805;28;20119;-80
2022/07/08 06:41:04;;;;;;;14.15;3.47;;;;;;;15.14;77.05;102983.69;5070889;28;20134;-80
2022/07/08 06:43:29;;;;;;;12.00;3.17;;;;;;;15.18;77.70;102982.56;5078226;28;20032;-80
2022/07/08 06:45:55;;;;;;;11.07;2.97;;;;;;;15.22;77.31;102984.13;5080900;28;20040;-80
2022/07/08 06:48:20;;;;;;;10.15;2.97;;;;;;;15.26;77.79;102996.53;5071842;28;20100;-80
2022/07/08 06:50:46;;;;;;;15.80;3.10;;;;;;;15.29;74.32;102990.94;5085912;28;20115;-80
2022/07/08 06:53:11;;;;;;;13.35;3.10;;;;;;;15.31;73.77;102990.84;5076665;28;20020;-80
2022/07/08 06:55:37;;;;;;;12.32;3.50;;;;;;;15.33;75.81;102997.94;5066587;28;20498;-80
2022/07/08 06:58:02;;;;;;;13.15;2.95;;;;;;;15.35;76.39;102987.84;5084601;28;20025;-80
2022/07/08 07:00:27;;;;;;;13.00;2.53;;;;;;;15.36;73.93;102986.91;5075873;28;20038;-80
2022/07/08 07:02:53;;;;;;;14.25;3.17;;;;;;;15.41;74.96;102992.03;5086694;28;20032;-80
2022/07/08 07:05:19;;;;;;;14.68;3.55;;;;;;;15.46;74.74;102992.66;5069710;28;20056;-80
2022/07/08 07:07:45;;;;;;;11.23;3.38;;;;;;;15.51;74.69;102986.94;5083794;28;20065;-73
2022/07/08 07:10:10;;;;;;;9.85;2.80;;;;;;;15.60;76.12;102999.06;5081141;28;20028;-73
2022/07/08 07:12:35;;;;;;;17.02;3.00;;;;;;;15.62;72.65;103000.72;5073159;28;20072;-73
2022/07/08 07:15:01;;;;;;;6.63;2.28;;;;;;;15.65;71.32;102995.13;5076064;28;20028;-73
2022/07/08 07:17:26;;;;;;;12.82;3.40;;;;;;;15.72;74.08;102995.59;5081367;28;20135;-73
2022/07/08 07:19:52;;;;;;;13.52;3.20;;;;;;;15.77;73.37;103001.63;5083127;28;20033;-73
2022/07/08 07:22:17;;;;;;;6.45;2.55;;;;;;;15.77;71.33;103003.44;5085060;28;20035;-73
2022/07/08 07:24:43;;;;;;;10.13;3.13;;;;;;;15.78;71.59;103003.41;5080158;28;20020;-73
2022/07/08 07:27:09;;;;;;;7.80;2.55;;;;;;;15.87;72.66;103001.97;5086716;28;20024;-73
2022/07/08 07:29:36;;;;;;;11.35;3.35;;;;;;;15.90;72.32;102999.94;5083547;28;20039;-73
2022/07/08 07:32:01;;;;;;;16.20;3.10;;;;;;;15.92;71.87;102999.84;5083760;28;20035;-74
2022/07/08 07:34:27;;;;;;;13.48;2.58;;;;;;;15.96;71.54;103003.22;5073265;28;20036;-74
2022/07/08 07:36:52;;;;;;;19.60;3.25;;;;;;;16.01;71.48;103001.97;5077158;28;20110;-74
2022/07/08 07:39:18;;;;;;;9.57;2.63;;;;;;;16.06;71.77;102999.88;5083553;28;20029;-74
2022/07/08 07:41:43;;;;;;;15.48;3.75;;;;;;;16.13;71.99;102997.63;5078440;28;20028;-73
2022/07/08 07:44:08;;;;;;;19.25;3.75;;;;;;;16.20;71.30;102996.28;5073233;28;20043;-73
2022/07/08 07:46:34;;;;;;;7.82;2.53;;;;;;;16.23;69.99;102995.22;5087076;28;20054;-73
2022/07/08 07:48:59;;;;;;;13.85;3.58;;;;;;;16.28;71.41;102994.91;5070236;28;20099;-73
2022/07/08 07:51:25;;;;;;;9.95;2.50;;;;;;;16.32;70.93;103002.75;5082562;28;20032;-73
2022/07/08 07:53:51;;;;;;;13.43;3.85;;;;;;;16.35;70.82;102997.13;5070333;28;20029;-73
2022/07/08 07:56:16;;;;;;;10.27;3.05;;;;;;;16.36;69.13;102998.88;5087565;28;20039;-73
2022/07/08 07:58:42;;;;;;;12.25;3.15;;;;;;;16.39;69.21;102993.25;5072469;28;20024;-73
2022/07/08 08:01:07;;;;;;;8.93;2.70;;;;;;;16.42;71.57;102993.06;5076837;28;20040;-73
2022/07/08 08:03:33;;;;;;;13.40;3.05;;;;;;;16.41;70.43;102985.91;5079072;28;20124;-73
2022/07/08 08:05:59;;;;;;;13.25;2.97;;;;;;;16.45;69.07;102996.56;5068106;28;20032;-73
2022/07/08 08:08:26;;;;;;;11.32;3.20;;;;;;;16.48;70.04;102990.94;5069208;28;20024;-73
2022/07/08 08:10:53;;;;;;;12.70;3.03;;;;;;;16.55;70.55;103005.88;5073878;28;20054;-73
2022/07/08 08:13:19;;;;;;;9.50;2.88;;;;;;;16.54;70.42;103002.25;5075172;28;20112;-73
2022/07/08 08:15:45;;;;;;;14.23;3.60;;;;;;;16.55;69.17;103003.16;5082216;28;20158;-73
2022/07/08 08:18:10;;;;;;;15.10;3.25;;;;;;;16.58;70.46;103000.22;5077477;28;20709;-73
2022/07/08 08:20:35;;;;;;;13.30;3.38;;;;;;;16.64;71.19;102997.13;5077444;28;20166;-73
2022/07/08 08:23:01;;;;;;;14.60;3.55;;;;;;;16.71;71.07;102998.47;5087341;28;20032;-73
2022/07/08 08:25:27;;;;;;;18.50;3.92;;;;;;;16.74;69.84;103000.97;5083236;28;20027;-73
2022/07/08 08:27:52;;;;;;;10.90;3.20;;;;;;;16.81;71.04;102996.03;5089628;28;20039;-73
2022/07/08 08:30:18;;;;;;;15.43;2.85;;;;;;;16.83;69.73;103001.34;5089633;28;20039;-73
2022/07/08 08:32:44;;;;;;;16.80;4.10;;;;;;;16.86;70.28;103004.72;5077706;28;20020;-73
2022/07/08 08:35:10;;;;;;;16.55;3.45;;;;;;;16.92;68.63;103000.78;5080625;28;20031;-73
2022/07/08 08:37:35;;;;;;;10.98;3.53;;;;;;;16.98;69.99;103007.66;5077670;28;20032;-73
2022/07/08 08:40:04;;;;;;;15.50;4.03;;;;;;;16.99;69.13;103007.53;5082002;28;20024;-73
2022/07/08 08:42:31;;;;;;;13.60;3.58;;;;;;;17.02;69.20;103015.47;5078656;28;20547;-73
2022/07/08 08:44:58;;;;;;;13.82;3.78;;;;;;;17.04;69.08;103008.13;5078487;28;20032;-73
2022/07/08 08:47:28;;;;;;;17.10;4.07;;;;;;;17.07;67.97;102997.03;5084928;28;20403;-73
2022/07/08 08:49:55;;;;;;;16.25;3.30;;;;;;;17.10;68.08;102999.56;5081398;28;20035;-73
2022/07/08 08:52:23;;;;;;;16.10;3.92;;;;;;;17.18;69.64;102990.88;5091277;28;20544;-73
2022/07/08 08:54:49;;;;;;;14.35;3.70;;;;;;;17.23;69.38;102987.84;5092893;28;20031;-73
2022/07/08 08:57:16;;;;;;;14.20;3.38;;;;;;;17.26;67.72;102987.63;5072758;28;20545;-73
2022/07/08 08:59:42;;;;;;;10.85;3.05;;;;;;;17.33;68.16;102988.09;5091523;28;20464;-73
2022/07/08 09:02:10;;;;;;;7.18;2.88;;;;;;;17.38;68.93;102986.81;5073890;28;20035;-73
2022/07/08 09:04:37;;;;;;;18.23;3.35;;;;;;;17.43;68.33;102987.34;5067411;28;20080;-72
2022/07/08 09:07:02;;;;;;;10.57;3.25;;;;;;;17.47;67.41;102975.31;5068718;28;20036;-73
2022/07/08 09:09:27;;;;;;;16.08;3.72;;;;;;;17.55;67.66;102982.06;5069674;28;20373;-74
2022/07/08 09:11:53;;;;;;;12.85;3.35;;;;;;;17.58;67.49;102981.84;5070686;28;20068;-74
2022/07/08 09:14:22;;;;;;;15.07;3.38;;;;;;;17.62;66.55;102983.38;5070703;28;20045;-74
2022/07/08 09:17:11;;;;;;;16.60;3.50;;;;;;;17.65;66.53;102986.75;5072947;28;20028;-74
2022/07/08 09:19:37;;;;;;;11.93;3.35;;;;;;;17.68;65.74;102982.94;5071782;28;20361;-74
2022/07/08 09:22:05;;;;;;;12.07;2.90;;;;;;;17.68;65.12;102980.22;5085237;28;20046;-74
2022/07/08 09:24:30;;;;;;;15.05;3.83;;;;;;;17.75;66.88;102984.25;5072756;28;20493;-74
2022/07/08 09:26:56;;;;;;;15.18;3.78;;;;;;;17.78;65.85;102992.19;5074190;28;20056;-73
2022/07/08 09:29:22;;;;;;;14.05;3.42;;;;;;;17.88;67.78;102991.53;5070442;28;20471;-73
2022/07/08 09:31:47;;;;;;;15.23;3.35;;;;;;;17.89;66.24;102990.56;5069929;28;20028;-73
2022/07/08 09:34:16;;;;;;;13.23;3.83;;;;;;;17.91;65.82;102983.22;5072995;28;20032;-73
2022/07/08 09:36:49;;;;;;;10.45;3.45;;;;;;;17.91;65.21;102992.25;5072765;28;20024;-73
2022/07/08 09:39:27;;;;;;;12.35;3.40;;;;;;;17.94;66.31;102983.00;5082590;28;20402;-73
2022/07/08 09:41:53;;;;;;;11.18;2.97;;;;;;;17.95;65.00;102984.72;5072436;28;20442;-73
2022/07/08 09:44:22;;;;;;;13.02;3.30;;;;;;;18.01;65.25;102980.72;5079947;28;20028;-73
2022/07/08 09:46:49;;;;;;;11.10;3.42;;;;;;;18.06;65.73;102983.97;5082726;28;20024;-73
2022/07/08 09:49:33;;;;;;;11.93;2.85;;;;;;;18.10;65.78;102980.94;5072256;28;20048;-73
2022/07/08 09:51:59;;;;;;;11.95;3.55;;;;;;;18.14;65.01;102985.19;5089844;28;20147;-73
2022/07/08 09:54:26;;;;;;;14.55;3.60;;;;;;;18.21;66.38;102982.88;5075218;28;20028;-73
2022/07/08 09:57:07;;;;;;;12.48;3.15;;;;;;;18.23;66.47;102980.03;5069336;28;20079;-73
2022/07/08 09:59:34;;;;;;;9.52;3.33;;;;;;;18.27;65.47;102982.44;5075200;28;20056;-73
2022/07/08 10:02:00;;;;;;;10.60;3.22;;;;;;;18.29;66.15;102985.06;5071392;28;20086;-73
2022/07/08 10:04:26;;;;;;;12.48;3.17;;;;;;;18.33;65.65;102983.81;5082299;28;20422;-73
2022/07/08 10:06:52;;;;;;;12.23;3.28;;;;;;;18.36;64.27;102988.19;5081209;28;20028;-73
2022/07/08 10:09:19;;;;;;;13.07;3.38;;;;;;;18.42;65.45;102987.72;5075964;28;20036;-73
2022/07/08 10:11:45;;;;;;;18.58;3.47;;;;;;;18.48;67.20;102993.63;5088857;28;20170;-73
2022/07/08 10:14:11;;;;;;;16.05;3.65;;;;;;;18.55;69.02;102988.59;5072039;28;20410;-73
2022/07/08 10:16:39;;;;;;;15.35;3.50;;;;;;;18.60;65.42;102990.97;5068369;28;20039;-74
2022/07/08 10:19:09;;;;;;;12.52;3.50;;;;;;;18.61;64.35;102998.16;5070313;28;20054;-74
2022/07/08 10:21:38;;;;;;;11.13;3.42;;;;;;;18.67;65.83;103000.44;5075086;28;20107;-74
2022/07/08 10:24:07;;;;;;;14.73;3.40;;;;;;;18.65;65.59;102986.94;5075506;28;20028;-73
2022/07/08 10:26:38;;;;;;;10.80;3.55;;;;;;;18.71;64.24;102992.91;5083908;28;20072;-73
2022/07/08 10:29:05;;;;;;;15.80;3.55;;;;;;;18.75;64.23;102992.56;5071436;28;20029;-73
2022/07/08 10:31:42;;;;;;;12.93;3.75;;;;;;;18.78;62.96;102984.16;5076523;28;20024;-73
2022/07/08 10:34:08;;;;;;;12.32;3.92;;;;;;;18.83;64.80;102975.66;5069539;28;20448;-73
2022/07/08 10:37:03;;;;;;;12.18;3.35;;;;;;;18.90;64.35;102973.38;5074452;28;20029;-73
2022/07/08 10:39:40;;;;;;;10.25;3.28;;;;;;;18.97;64.83;102970.06;5062852;28;20036;-73
2022/07/08 10:42:07;;;;;;;11.20;3.42;;;;;;;19.01;66.46;102973.44;5066187;28;20329;-73
2022/07/08 10:44:45;;;;;;;14.35;3.22;;;;;;;19.08;67.21;102971.09;5071062;28;20029;-73
2022/07/08 10:47:12;;;;;;;13.45;3.70;;;;;;;19.15;63.94;102975.09;5070274;28;20090;-73
2022/07/08 10:49:47;;;;;;;9.82;2.90;;;;;;;19.20;63.57;102971.03;5082572;28;20488;-73
2022/07/08 10:52:14;;;;;;;9.02;2.67;;;;;;;19.18;62.92;102970.28;5087850;28;20471;-73
2022/07/08 10:54:39;;;;;;;11.02;3.20;;;;;;;19.21;63.25;102970.06;5084199;28;20068;-73
2022/07/08 10:57:14;;;;;;;17.98;4.35;;;;;;;19.21;62.18;102964.59;5081524;28;20123;-73
2022/07/08 10:59:39;;;;;;;9.32;3.42;;;;;;;19.25;63.30;102967.09;5080153;28;20069;-73
2022/07/08 11:02:14;;;;;;;7.32;2.50;;;;;;;19.27;63.77;102970.56;5070230;28;20016;-73
2022/07/08 11:04:40;;;;;;;6.72;2.42;;;;;;;19.29;63.22;102971.31;5080686;28;20036;-74
2022/07/08 11:07:14;;;;;;;8.18;2.60;;;;;;;19.37;64.00;102974.31;5072211;28;20028;-74
2022/07/08 11:09:40;;;;;;;10.15;2.67;;;;;;;19.42;64.47;102974.84;5076016;28;20135;-73
2022/07/08 11:12:10;;;;;;;12.35;2.90;;;;;;;19.55;65.05;102975.63;5071467;28;20515;-74
2022/07/08 11:14:36;;;;;;;8.00;2.58;;;;;;;19.58;62.12;102968.19;5070132;28;20067;-74
2022/07/08 11:17:02;;;;;;;8.93;2.90;;;;;;;19.62;63.12;102966.94;5065414;28;20078;-73